sensor_id;sensor_type;location;lat;lon;timestamp;pressure;altitude;pressure_sealevel;temperature;humidity
23176;BME280;19910;42.652;23.332;2022-12-18T00:02:01;95383.47;;;6.58;100.00
23176;BME280;19910;42.652;23.332;2022-12-18T00:04:27;95369.06;;;6.43;100.00
23176;BME280;19910;42.652;23.332;2022-12-18T00:06:54;95374.00;;;6.36;100.00
23176;BME280;19910;42.652;23.332;2022-12-18T00:09:21;95377.31;;;6.28;100.00
23176;BME280;19910;42.652;23.332;2022-12-18T00:11:48;95382.19;;;6.21;100.00
23176;BME280;19910;42.652;23.332;2022-12-18T00:14:15;95381.28;;;6.31;100.00
23176;BME280;19910;42.652;23.332;2022-12-18T00:16:43;95381.13;;;6.17;100.00
23176;BME280;19910;42.652;23.332;2022-12-18T00:19:12;95383.53;;;6.19;100.00
23176;BME280;19910;42.652;23.332;2022-12-18T00:21:40;95396.81;;;6.10;100.00
23176;BME280;19910;42.652;23.332;2022-12-18T00:24:07;95392.47;;;6.14;100.00
23176;BME280;19910;42.652;23.332;2022-12-18T00:26:36;95403.00;;;6.11;100.00
23176;BME280;19910;42.652;23.332;2022-12-18T00:29:05;95408.09;;;6.12;100.00
23176;BME280;19910;42.652;23.332;2022-12-18T00:31:33;95409.19;;;6.06;100.00
23176;BME280;19910;42.652;23.332;2022-12-18T00:34:00;95412.69;;;6.06;100.00
23176;BME280;19910;42.652;23.332;2022-12-18T00:36:30;95406.84;;;5.99;100.00
23176;BME280;19910;42.652;23.332;2022-12-18T00:38:58;95413.56;;;5.97;100.00
23176;BME280;19910;42.652;23.332;2022-12-18T00:41:26;95417.34;;;5.96;100.00
23176;BME280;19910;42.652;23.332;2022-12-18T00:44:12;95424.34;;;5.92;100.00
23176;BME280;19910;42.652;23.332;2022-12-18T00:46:39;95419.25;;;5.90;100.00
23176;BME280;19910;42.652;23.332;2022-12-18T00:49:06;95420.56;;;5.88;100.00
23176;BME280;19910;42.652;23.332;2022-12-18T00:51:35;95422.72;;;5.96;100.00
23176;BME280;19910;42.652;23.332;2022-12-18T00:54:02;95424.88;;;5.94;100.00
23176;BME280;19910;42.652;23.332;2022-12-18T00:56:28;95434.03;;;5.93;100.00
23176;BME280;19910;42.652;23.332;2022-12-18T00:58:55;95430.25;;;5.94;100.00
23176;BME280;19910;42.652;23.332;2022-12-18T01:01:22;95441.56;;;5.91;100.00
23176;BME280;19910;42.652;23.332;2022-12-18T01:03:49;95427.31;;;5.90;100.00
23176;BME280;19910;42.652;23.332;2022-12-18T01:06:16;95429.22;;;5.80;100.00
23176;BME280;19910;42.652;23.332;2022-12-18T01:08:44;95435.66;;;5.84;100.00
23176;BME280;19910;42.652;23.332;2022-12-18T01:11:13;95442.66;;;5.80;100.00
23176;BME280;19910;42.652;23.332;2022-12-18T01:13:42;95449.72;;;5.65;100.00
23176;BME280;19910;42.652;23.332;2022-12-18T01:16:11;95446.56;;;5.53;100.00
23176;BME280;19910;42.652;23.332;2022-12-18T01:18:37;95453.03;;;5.47;100.00
23176;BME280;19910;42.652;23.332;2022-12-18T01:21:06;95451.72;;;5.40;100.00
23176;BME280;19910;42.652;23.332;2022-12-18T01:23:33;95449.03;;;5.45;100.00
23176;BME280;19910;42.652;23.332;2022-12-18T01:26:06;95457.34;;;5.43;100.00
23176;BME280;19910;42.652;23.332;2022-12-18T01:28:32;95454.13;;;5.41;100.00
23176;BME280;19910;42.652;23.332;2022-12-18T01:31:10;95466.53;;;5.32;100.00
23176;BME280;19910;42.652;23.332;2022-12-18T01:33:36;95467.63;;;5.26;100.00
23176;BME280;19910;42.652;23.332;2022-12-18T01:36:04;95466.53;;;5.32;100.00
23176;BME280;19910;42.652;23.332;2022-12-18T01:38:31;95467.88;;;5.29;100.00
23176;BME280;19910;42.652;23.332;2022-12-18T01:40:57;95466.53;;;5.32;100.00
23176;BME280;19910;42.652;23.332;2022-12-18T01:43:44;95460.94;;;5.13;100.00
23176;BME280;19910;42.652;23.332;2022-12-18T01:46:11;95469.00;;;5.13;100.00
23176;BME280;19910;42.652;23.332;2022-12-18T01:48:38;95470.34;;;5.16;100.00
23176;BME280;19910;42.652;23.332;2022-12-18T01:51:08;95465.25;;;5.14;100.00
23176;BME280;19910;42.652;23.332;2022-12-18T01:53:37;95471.94;;;5.12;100.00
23176;BME280;19910;42.652;23.332;2022-12-18T01:56:06;95473.06;;;5.00;100.00
23176;BME280;19910;42.652;23.332;2022-12-18T01:58:43;95480.56;;;4.93;100.00
23176;BME280;19910;42.652;23.332;2022-12-18T02:01:14;95485.16;;;4.88;100.00
23176;BME280;19910;42.652;23.332;2022-12-18T02:03:41;95472.53;;;4.88;100.00
23176;BME280;19910;42.652;23.332;2022-12-18T02:06:13;95475.75;;;4.80;100.00
23176;BME280;19910;42.652;23.332;2022-12-18T02:08:50;95481.66;;;4.82;100.00
23176;BME280;19910;42.652;23.332;2022-12-18T02:11:27;95497.22;;;4.80;100.00
23176;BME280;19910;42.652;23.332;2022-12-18T02:14:01;95485.41;;;4.81;100.00
23176;BME280;19910;42.652;23.332;2022-12-18T02:16:36;95491.88;;;4.90;100.00
23176;BME280;19910;42.652;23.332;2022-12-18T02:19:10;95498.31;;;4.84;100.00
23176;BME280;19910;42.652;23.332;2022-12-18T02:21:49;95493.44;;;4.96;100.00
23176;BME280;19910;42.652;23.332;2022-12-18T02:24:29;95499.63;;;5.02;100.00
23176;BME280;19910;42.652;23.332;2022-12-18T02:27:03;95500.69;;;4.96;100.00
23176;BME280;19910;42.652;23.332;2022-12-18T02:29:35;95494.53;;;4.85;100.00
23176;BME280;19910;42.652;23.332;2022-12-18T02:32:08;95499.63;;;4.82;100.00
23176;BME280;19910;42.652;23.332;2022-12-18T02:34:38;95496.69;;;4.83;100.00
23176;BME280;19910;42.652;23.332;2022-12-18T02:37:07;95508.53;;;4.77;100.00
23176;BME280;19910;42.652;23.332;2022-12-18T02:39:39;95501.53;;;4.76;100.00
23176;BME280;19910;42.652;23.332;2022-12-18T02:42:09;95504.75;;;4.83;100.00
23176;BME280;19910;42.652;23.332;2022-12-18T02:44:42;95510.66;;;4.85;100.00
23176;BME280;19910;42.652;23.332;2022-12-18T02:47:10;95515.50;;;4.78;100.00
23176;BME280;19910;42.652;23.332;2022-12-18T02:49:44;95503.13;;;4.67;100.00
23176;BME280;19910;42.652;23.332;2022-12-18T02:52:20;95509.31;;;4.73;100.00
23176;BME280;19910;42.652;23.332;2022-12-18T02:54:56;95510.66;;;4.60;100.00
23176;BME280;19910;42.652;23.332;2022-12-18T02:57:33;95522.72;;;4.52;100.00
23176;BME280;19910;42.652;23.332;2022-12-18T03:00:05;95521.09;;;4.51;100.00
23176;BME280;19910;42.652;23.332;2022-12-18T03:02:38;95521.91;;;4.57;100.00
23176;BME280;19910;42.652;23.332;2022-12-18T03:05:11;95525.16;;;4.49;100.00
23176;BME280;19910;42.652;23.332;2022-12-18T03:07:44;95528.88;;;4.43;100.00
23176;BME280;19910;42.652;23.332;2022-12-18T03:10:16;95530.78;;;4.37;100.00
23176;BME280;19910;42.652;23.332;2022-12-18T03:12:51;95528.34;;;4.31;100.00
23176;BME280;19910;42.652;23.332;2022-12-18T03:15:23;95535.03;;;4.38;100.00
23176;BME280;19910;42.652;23.332;2022-12-18T03:17:56;95535.84;;;4.44;100.00
23176;BME280;19910;42.652;23.332;2022-12-18T03:20:29;95528.88;;;4.53;100.00
23176;BME280;19910;42.652;23.332;2022-12-18T03:23:02;95527.81;;;4.44;100.00
23176;BME280;19910;42.652;23.332;2022-12-18T03:25:31;95528.06;;;4.42;100.00
23176;BME280;19910;42.652;23.332;2022-12-18T03:28:02;95535.31;;;4.42;100.00
23176;BME280;19910;42.652;23.332;2022-12-18T03:30:36;95541.75;;;4.41;100.00
23176;BME280;19910;42.652;23.332;2022-12-18T03:33:08;95543.38;;;4.42;100.00
23176;BME280;19910;42.652;23.332;2022-12-18T03:35:39;95548.72;;;4.42;100.00
23176;BME280;19910;42.652;23.332;2022-12-18T03:38:07;95563.47;;;4.34;100.00
23176;BME280;19910;42.652;23.332;2022-12-18T03:40:43;95558.91;;;4.35;100.00
23176;BME280;19910;42.652;23.332;2022-12-18T03:43:17;95562.41;;;4.35;100.00
23176;BME280;19910;42.652;23.332;2022-12-18T03:45:50;95565.88;;;4.41;100.00
23176;BME280;19910;42.652;23.332;2022-12-18T03:48:23;95571.00;;;4.42;100.00
23176;BME280;19910;42.652;23.332;2022-12-18T03:50:56;95575.03;;;4.45;100.00
23176;BME280;19910;42.652;23.332;2022-12-18T03:53:29;95578.78;;;4.44;99.93
23176;BME280;19910;42.652;23.332;2022-12-18T03:56:00;95587.13;;;4.47;99.04
23176;BME280;19910;42.652;23.332;2022-12-18T03:58:31;95586.56;;;4.45;98.57
23176;BME280;19910;42.652;23.332;2022-12-18T04:01:01;95594.34;;;4.47;98.54
23176;BME280;19910;42.652;23.332;2022-12-18T04:03:29;95590.59;;;4.48;98.25
23176;BME280;19910;42.652;23.332;2022-12-18T04:05:59;95584.66;;;4.41;98.65
23176;BME280;19910;42.652;23.332;2022-12-18T04:08:27;95596.50;;;4.45;98.95
23176;BME280;19910;42.652;23.332;2022-12-18T04:10:55;95593.28;;;4.48;98.55
23176;BME280;19910;42.652;23.332;2022-12-18T04:13:23;95588.41;;;4.40;98.09
23176;BME280;19910;42.652;23.332;2022-12-18T04:15:51;95600.25;;;4.44;97.15
23176;BME280;19910;42.652;23.332;2022-12-18T04:18:18;95600.75;;;4.36;96.82
23176;BME280;19910;42.652;23.332;2022-12-18T04:20:45;95603.72;;;4.34;97.46
23176;BME280;19910;42.652;23.332;2022-12-18T04:23:11;95607.47;;;4.43;97.10
23176;BME280;19910;42.652;23.332;2022-12-18T04:25:38;95613.09;;;4.42;97.19
23176;BME280;19910;42.652;23.332;2022-12-18T04:28:05;95604.50;;;4.40;95.59
23176;BME280;19910;42.652;23.332;2022-12-18T04:30:32;95617.66;;;4.41;95.88
23176;BME280;19910;42.652;23.332;2022-12-18T04:33:00;95617.38;;;4.38;95.79
23176;BME280;19910;42.652;23.332;2022-12-18T04:35:29;95621.16;;;4.37;95.41
23176;BME280;19910;42.652;23.332;2022-12-18T04:37:56;95630.28;;;4.36;94.25
23176;BME280;19910;42.652;23.332;2022-12-18T04:40:23;95636.38;;;4.26;93.30
23176;BME280;19910;42.652;23.332;2022-12-18T04:42:50;95639.88;;;4.26;93.56
23176;BME280;19910;42.652;23.332;2022-12-18T04:45:16;95640.44;;;4.39;93.14
23176;BME280;19910;42.652;23.332;2022-12-18T04:47:43;95646.06;;;4.32;93.41
23176;BME280;19910;42.652;23.332;2022-12-18T04:50:11;95639.38;;;4.35;93.12
23176;BME280;19910;42.652;23.332;2022-12-18T04:52:38;95651.19;;;4.39;93.04
23176;BME280;19910;42.652;23.332;2022-12-18T04:55:05;95651.16;;;4.23;92.45
23176;BME280;19910;42.652;23.332;2022-12-18T04:57:32;95652.22;;;4.22;92.14
23176;BME280;19910;42.652;23.332;2022-12-18T04:59:59;95654.34;;;4.20;92.25
23176;BME280;19910;42.652;23.332;2022-12-18T05:02:26;95659.13;;;4.13;91.95
23176;BME280;19910;42.652;23.332;2022-12-18T05:04:54;95652.16;;;4.12;92.00
23176;BME280;19910;42.652;23.332;2022-12-18T05:07:22;95660.75;;;4.14;92.55
23176;BME280;19910;42.652;23.332;2022-12-18T05:09:49;95674.16;;;4.14;92.39
23176;BME280;19910;42.652;23.332;2022-12-18T05:12:15;95668.75;;;4.04;92.20
23176;BME280;19910;42.652;23.332;2022-12-18T05:14:42;95677.88;;;4.08;92.04
23176;BME280;19910;42.652;23.332;2022-12-18T05:17:09;95678.97;;;4.07;92.23
23176;BME280;19910;42.652;23.332;2022-12-18T05:19:38;95674.38;;;4.03;92.16
23176;BME280;19910;42.652;23.332;2022-12-18T05:22:05;95688.63;;;4.08;92.18
23176;BME280;19910;42.652;23.332;2022-12-18T05:24:33;95688.03;;;4.01;92.61
23176;BME280;19910;42.652;23.332;2022-12-18T05:27:00;95697.66;;;3.97;92.79
23176;BME280;19910;42.652;23.332;2022-12-18T05:29:27;95690.69;;;3.96;92.68
23176;BME280;19910;42.652;23.332;2022-12-18T05:31:54;95706.50;;;3.98;92.54
23176;BME280;19910;42.652;23.332;2022-12-18T05:34:21;95718.56;;;4.00;92.15
23176;BME280;19910;42.652;23.332;2022-12-18T05:36:47;95715.94;;;4.05;92.26
23176;BME280;19910;42.652;23.332;2022-12-18T05:39:14;95719.16;;;4.07;92.17
23176;BME280;19910;42.652;23.332;2022-12-18T05:41:42;95720.78;;;4.08;92.12
23176;BME280;19910;42.652;23.332;2022-12-18T05:44:09;95718.63;;;4.10;91.98
23176;BME280;19910;42.652;23.332;2022-12-18T05:46:36;95725.91;;;4.15;92.23
23176;BME280;19910;42.652;23.332;2022-12-18T05:49:03;95723.47;;;4.13;91.63
23176;BME280;19910;42.652;23.332;2022-12-18T05:51:29;95731.44;;;3.98;91.01
23176;BME280;19910;42.652;23.332;2022-12-18T05:53:56;95726.88;;;3.99;90.56
23176;BME280;19910;42.652;23.332;2022-12-18T05:56:23;95727.34;;;3.85;91.05
23176;BME280;19910;42.652;23.332;2022-12-18T05:58:53;95740.19;;;3.83;91.09
23176;BME280;19910;42.652;23.332;2022-12-18T06:01:22;95734.00;;;3.83;91.39
23176;BME280;19910;42.652;23.332;2022-12-18T06:03:49;95736.66;;;3.78;91.10
23176;BME280;19910;42.652;23.332;2022-12-18T06:06:17;95736.16;;;3.81;91.50
23176;BME280;19910;42.652;23.332;2022-12-18T06:08:44;95744.22;;;3.86;91.13
23176;BME280;19910;42.652;23.332;2022-12-18T06:11:12;95745.31;;;3.90;91.33
23176;BME280;19910;42.652;23.332;2022-12-18T06:13:39;95745.81;;;3.82;91.30
23176;BME280;19910;42.652;23.332;2022-12-18T06:16:07;95744.78;;;3.88;91.41
23176;BME280;19910;42.652;23.332;2022-12-18T06:18:37;95752.81;;;3.88;90.69
23176;BME280;19910;42.652;23.332;2022-12-18T06:21:05;95742.69;;;3.95;90.61
23176;BME280;19910;42.652;23.332;2022-12-18T06:23:32;95761.97;;;3.97;90.66
23176;BME280;19910;42.652;23.332;2022-12-18T06:26:04;95750.53;;;4.07;90.77
23176;BME280;19910;42.652;23.332;2022-12-18T06:28:31;95764.75;;;4.07;90.97
23176;BME280;19910;42.652;23.332;2022-12-18T06:30:57;95755.34;;;4.05;91.07
23176;BME280;19910;42.652;23.332;2022-12-18T06:33:27;95757.78;;;4.11;90.72
23176;BME280;19910;42.652;23.332;2022-12-18T06:35:54;95760.50;;;4.16;89.86
23176;BME280;19910;42.652;23.332;2022-12-18T06:38:21;95768.50;;;4.11;89.83
23176;BME280;19910;42.652;23.332;2022-12-18T06:40:48;95770.13;;;4.12;89.94
23176;BME280;19910;42.652;23.332;2022-12-18T06:43:14;95777.91;;;4.14;89.12
23176;BME280;19910;42.652;23.332;2022-12-18T06:45:41;95784.09;;;4.14;89.31
23176;BME280;19910;42.652;23.332;2022-12-18T06:48:08;95779.31;;;4.21;89.64
23176;BME280;19910;42.652;23.332;2022-12-18T06:50:36;95785.19;;;4.18;88.90
23176;BME280;19910;42.652;23.332;2022-12-18T06:53:03;95787.31;;;4.16;88.60
23176;BME280;19910;42.652;23.332;2022-12-18T06:55:30;95796.44;;;4.15;88.35
23176;BME280;19910;42.652;23.332;2022-12-18T06:57:56;95791.38;;;4.19;87.83
23176;BME280;19910;42.652;23.332;2022-12-18T07:00:24;95804.53;;;4.20;87.79
23176;BME280;19910;42.652;23.332;2022-12-18T07:02:51;95789.75;;;4.18;87.75
23176;BME280;19910;42.652;23.332;2022-12-18T07:05:18;95791.06;;;4.15;87.19
23176;BME280;19910;42.652;23.332;2022-12-18T07:07:46;95798.84;;;4.17;87.13
23176;BME280;19910;42.652;23.332;2022-12-18T07:10:13;95808.56;;;4.23;87.01
23176;BME280;19910;42.652;23.332;2022-12-18T07:12:40;95810.44;;;4.22;86.98
23176;BME280;19910;42.652;23.332;2022-12-18T07:15:07;95794.50;;;4.11;87.02
23176;BME280;19910;42.652;23.332;2022-12-18T07:17:34;95807.75;;;4.22;87.14
23176;BME280;19910;42.652;23.332;2022-12-18T07:20:01;95807.81;;;4.33;87.38
23176;BME280;19910;42.652;23.332;2022-12-18T07:22:28;95806.84;;;4.49;86.82
23176;BME280;19910;42.652;23.332;2022-12-18T07:24:56;95809.22;;;5.03;88.21
23176;BME280;19910;42.652;23.332;2022-12-18T07:27:23;95811.66;;;5.09;86.18
23176;BME280;19910;42.652;23.332;2022-12-18T07:29:49;95821.31;;;4.48;84.46
23176;BME280;19910;42.652;23.332;2022-12-18T07:32:16;95825.56;;;4.44;84.46
23176;BME280;19910;42.652;23.332;2022-12-18T07:34:43;95824.66;;;4.23;86.10
23176;BME280;19910;42.652;23.332;2022-12-18T07:37:10;95830.53;;;4.20;85.66
23176;BME280;19910;42.652;23.332;2022-12-18T07:39:36;95820.00;;;4.13;86.12
23176;BME280;19910;42.652;23.332;2022-12-18T07:42:07;95831.84;;;4.17;86.50
23176;BME280;19910;42.652;23.332;2022-12-18T07:44:52;95829.28;;;4.33;86.17
23176;BME280;19910;42.652;23.332;2022-12-18T07:47:18;95840.50;;;4.29;86.16
23176;BME280;19910;42.652;23.332;2022-12-18T07:49:45;95839.50;;;4.36;85.48
23176;BME280;19910;42.652;23.332;2022-12-18T07:52:12;95846.38;;;4.26;85.21
23176;BME280;19910;42.652;23.332;2022-12-18T07:54:38;95841.81;;;4.27;85.07
23176;BME280;19910;42.652;23.332;2022-12-18T07:57:07;95841.63;;;4.34;85.26
23176;BME280;19910;42.652;23.332;2022-12-18T07:59:34;95843.75;;;4.32;85.93
23176;BME280;19910;42.652;23.332;2022-12-18T08:02:01;95853.88;;;4.24;85.01
23176;BME280;19910;42.652;23.332;2022-12-18T08:04:28;95854.84;;;4.08;85.63
23176;BME280;19910;42.652;23.332;2022-12-18T08:06:55;95869.31;;;4.07;86.30
23176;BME280;19910;42.652;23.332;2022-12-18T08:09:21;95867.47;;;4.13;85.63
23176;BME280;19910;42.652;23.332;2022-12-18T08:11:48;95871.44;;;4.05;85.94
23176;BME280;19910;42.652;23.332;2022-12-18T08:14:16;95872.56;;;4.14;85.85
23176;BME280;19910;42.652;23.332;2022-12-18T08:16:43;95876.38;;;4.18;85.68
23176;BME280;19910;42.652;23.332;2022-12-18T08:19:10;95893.88;;;3.99;85.89
23176;BME280;19910;42.652;23.332;2022-12-18T08:21:37;95892.00;;;3.95;86.01
23176;BME280;19910;42.652;23.332;2022-12-18T08:24:04;95901.38;;;3.97;86.54
23176;BME280;19910;42.652;23.332;2022-12-18T08:26:33;95897.50;;;4.10;85.85
23176;BME280;19910;42.652;23.332;2022-12-18T08:29:00;95905.16;;;3.96;85.94
23176;BME280;19910;42.652;23.332;2022-12-18T08:31:29;95898.25;;;4.05;85.84
23176;BME280;19910;42.652;23.332;2022-12-18T08:33:56;95905.25;;;4.11;85.47
23176;BME280;19910;42.652;23.332;2022-12-18T08:36:24;95899.47;;;3.92;85.68
23176;BME280;19910;42.652;23.332;2022-12-18T08:38:52;95912.06;;;3.92;86.19
23176;BME280;19910;42.652;23.332;2022-12-18T08:41:19;95907.16;;;3.84;86.54
23176;BME280;19910;42.652;23.332;2022-12-18T08:43:46;95908.22;;;3.83;86.53
23176;BME280;19910;42.652;23.332;2022-12-18T08:46:37;95907.25;;;3.94;86.65
23176;BME280;19910;42.652;23.332;2022-12-18T08:49:04;95914.94;;;3.85;86.79
23176;BME280;19910;42.652;23.332;2022-12-18T08:51:32;95902.91;;;3.88;86.79
23176;BME280;19910;42.652;23.332;2022-12-18T08:53:59;95906.72;;;3.92;85.83
23176;BME280;19910;42.652;23.332;2022-12-18T08:56:26;95912.00;;;3.87;86.09
23176;BME280;19910;42.652;23.332;2022-12-18T08:58:53;95915.94;;;4.06;85.95
23176;BME280;19910;42.652;23.332;2022-12-18T09:01:20;95907.59;;;4.03;85.87
23176;BME280;19910;42.652;23.332;2022-12-18T09:03:49;95905.16;;;3.96;85.88
23176;BME280;19910;42.652;23.332;2022-12-18T09:06:17;95900.38;;;4.03;86.04
23176;BME280;19910;42.652;23.332;2022-12-18T09:08:45;95911.69;;;4.10;85.84
23176;BME280;19910;42.652;23.332;2022-12-18T09:11:14;95903.81;;;3.99;85.81
23176;BME280;19910;42.652;23.332;2022-12-18T09:13:41;95891.75;;;3.96;85.26
23176;BME280;19910;42.652;23.332;2022-12-18T09:16:08;95902.50;;;4.01;85.72
23176;BME280;19910;42.652;23.332;2022-12-18T09:18:35;95892.19;;;3.88;85.71
23176;BME280;19910;42.652;23.332;2022-12-18T09:21:09;95900.22;;;3.88;85.28
23176;BME280;19910;42.652;23.332;2022-12-18T09:23:36;95909.56;;;4.12;85.42
23176;BME280;19910;42.652;23.332;2022-12-18T09:26:03;95902.28;;;4.08;84.74
23176;BME280;19910;42.652;23.332;2022-12-18T09:28:30;95901.63;;;4.27;84.27
23176;BME280;19910;42.652;23.332;2022-12-18T09:30:57;95898.94;;;4.22;84.46
23176;BME280;19910;42.652;23.332;2022-12-18T09:33:23;95890.59;;;4.24;84.01
23176;BME280;19910;42.652;23.332;2022-12-18T09:35:50;95904.00;;;4.19;84.35
23176;BME280;19910;42.652;23.332;2022-12-18T09:38:19;95907.13;;;4.11;83.30
23176;BME280;19910;42.652;23.332;2022-12-18T09:40:48;95905.31;;;4.16;82.86
23176;BME280;19910;42.652;23.332;2022-12-18T09:43:18;95904.31;;;4.22;82.16
23176;BME280;19910;42.652;23.332;2022-12-18T09:45:50;95909.78;;;4.06;82.21
23176;BME280;19910;42.652;23.332;2022-12-18T09:48:23;95894.28;;;4.13;82.27
23176;BME280;19910;42.652;23.332;2022-12-18T09:50:51;95906.56;;;4.41;81.92
23176;BME280;19910;42.652;23.332;2022-12-18T09:53:26;95898.03;;;4.86;80.48
23176;BME280;19910;42.652;23.332;2022-12-18T09:55:54;95885.72;;;4.95;80.84
23176;BME280;19910;42.652;23.332;2022-12-18T09:58:28;95901.25;;;4.88;79.94
23176;BME280;19910;42.652;23.332;2022-12-18T10:00:57;95894.13;;;5.14;79.37
23176;BME280;19910;42.652;23.332;2022-12-18T10:03:23;95903.81;;;5.20;80.08
23176;BME280;19910;42.652;23.332;2022-12-18T10:05:58;95887.50;;;4.79;78.11
23176;BME280;19910;42.652;23.332;2022-12-18T10:08:36;95900.91;;;4.79;79.36
23176;BME280;19910;42.652;23.332;2022-12-18T10:11:21;95907.03;;;4.64;78.48
23176;BME280;19910;42.652;23.332;2022-12-18T10:13:58;95908.34;;;4.62;79.06
23176;BME280;19910;42.652;23.332;2022-12-18T10:16:33;95906.28;;;4.37;79.52
23176;BME280;19910;42.652;23.332;2022-12-18T10:19:20;95904.69;;;4.41;79.94
23176;BME280;19910;42.652;23.332;2022-12-18T10:21:59;95907.19;;;4.48;80.57
23176;BME280;19910;42.652;23.332;2022-12-18T10:24:33;95912.09;;;4.61;79.58
23176;BME280;19910;42.652;23.332;2022-12-18T10:27:12;95909.38;;;4.56;79.35
23176;BME280;19910;42.652;23.332;2022-12-18T10:29:41;95909.41;;;4.66;78.43
23176;BME280;19910;42.652;23.332;2022-12-18T10:32:14;95908.91;;;4.64;78.52
23176;BME280;19910;42.652;23.332;2022-12-18T10:34:45;95910.47;;;4.60;77.66
23176;BME280;19910;42.652;23.332;2022-12-18T10:37:15;95903.44;;;4.49;78.42
23176;BME280;19910;42.652;23.332;2022-12-18T10:39:44;95899.94;;;4.53;78.04
23176;BME280;19910;42.652;23.332;2022-12-18T10:42:15;95911.13;;;4.77;77.96
23176;BME280;19910;42.652;23.332;2022-12-18T10:44:42;95909.53;;;4.81;78.04
23176;BME280;19910;42.652;23.332;2022-12-18T10:47:12;95898.28;;;4.42;77.55
23176;BME280;19910;42.652;23.332;2022-12-18T10:49:46;95906.56;;;4.41;77.47
23176;BME280;19910;42.652;23.332;2022-12-18T10:52:17;95905.41;;;4.63;77.50
23176;BME280;19910;42.652;23.332;2022-12-18T10:54:51;95906.22;;;4.64;78.20
23176;BME280;19910;42.652;23.332;2022-12-18T10:57:31;95897.66;;;4.72;78.08
23176;BME280;19910;42.652;23.332;2022-12-18T11:00:20;95903.34;;;4.76;77.58
23176;BME280;19910;42.652;23.332;2022-12-18T11:02:48;95903.13;;;4.92;76.87
23176;BME280;19910;42.652;23.332;2022-12-18T11:05:27;95902.06;;;4.88;75.93
23176;BME280;19910;42.652;23.332;2022-12-18T11:07:54;95895.16;;;5.03;75.54
23176;BME280;19910;42.652;23.332;2022-12-18T11:10:28;95908.09;;;4.69;75.25
23176;BME280;19910;42.652;23.332;2022-12-18T11:12:55;95907.84;;;4.70;74.67
23176;BME280;19910;42.652;23.332;2022-12-18T11:15:27;95909.38;;;4.56;73.53
23176;BME280;19910;42.652;23.332;2022-12-18T11:17:56;95905.31;;;4.53;73.56
23176;BME280;19910;42.652;23.332;2022-12-18T11:20:30;95902.25;;;4.35;73.71
23176;BME280;19910;42.652;23.332;2022-12-18T11:22:59;95906.56;;;4.36;74.68
23176;BME280;19910;42.652;23.332;2022-12-18T11:25:28;95915.34;;;4.63;74.03
23176;BME280;19910;42.652;23.332;2022-12-18T11:27:56;95912.59;;;4.58;74.27
23176;BME280;19910;42.652;23.332;2022-12-18T11:30:26;95906.22;;;4.64;73.08
23176;BME280;19910;42.652;23.332;2022-12-18T11:32:56;95898.78;;;4.39;74.56
23176;BME280;19910;42.652;23.332;2022-12-18T11:35:32;95908.59;;;4.60;74.92
23176;BME280;19910;42.652;23.332;2022-12-18T11:38:06;95895.06;;;4.45;74.02
23176;BME280;19910;42.652;23.332;2022-12-18T11:40:42;95908.03;;;4.58;74.22
23176;BME280;19910;42.652;23.332;2022-12-18T11:43:13;95907.84;;;4.70;73.78
23176;BME280;19910;42.652;23.332;2022-12-18T11:45:48;95911.84;;;4.68;74.30
23176;BME280;19910;42.652;23.332;2022-12-18T11:48:18;95911.63;;;4.74;73.50
23176;BME280;19910;42.652;23.332;2022-12-18T11:50:49;95914.47;;;4.57;73.39
23176;BME280;19910;42.652;23.332;2022-12-18T11:53:18;95910.03;;;4.73;72.72
23176;BME280;19910;42.652;23.332;2022-12-18T11:56:03;95916.19;;;4.74;72.41
23176;BME280;19910;42.652;23.332;2022-12-18T11:58:47;95900.44;;;4.87;72.65
23176;BME280;19910;42.652;23.332;2022-12-18T12:01:30;95900.41;;;4.77;71.85
23176;BME280;19910;42.652;23.332;2022-12-18T12:07:28;95893.41;;;4.76;72.92
23176;BME280;19910;42.652;23.332;2022-12-18T12:10:07;95907.78;;;4.60;73.24
23176;BME280;19910;42.652;23.332;2022-12-18T12:12:49;95904.00;;;4.56;73.53
23176;BME280;19910;42.652;23.332;2022-12-18T12:15:28;95900.91;;;4.74;73.74
23176;BME280;19910;42.652;23.332;2022-12-18T12:18:08;95896.06;;;4.71;73.09
23176;BME280;19910;42.652;23.332;2022-12-18T12:20:49;95911.59;;;4.69;74.01
23176;BME280;19910;42.652;23.332;2022-12-18T12:23:28;95901.41;;;4.71;74.26
23176;BME280;19910;42.652;23.332;2022-12-18T12:26:06;95902.03;;;4.83;73.89
23176;BME280;19910;42.652;23.332;2022-12-18T12:28:59;95907.38;;;4.83;73.65
23176;BME280;19910;42.652;23.332;2022-12-18T12:31:39;95910.53;;;4.70;74.56
23176;BME280;19910;42.652;23.332;2022-12-18T12:34:11;95914.28;;;4.69;73.93
23176;BME280;19910;42.652;23.332;2022-12-18T12:36:46;95906.78;;;4.71;74.05
23176;BME280;19910;42.652;23.332;2022-12-18T12:39:21;95921.13;;;4.87;74.09
23176;BME280;19910;42.652;23.332;2022-12-18T12:41:49;95915.97;;;4.80;74.05
23176;BME280;19910;42.652;23.332;2022-12-18T12:44:39;95908.97;;;4.79;74.32
23176;BME280;19910;42.652;23.332;2022-12-18T12:47:13;95907.28;;;4.68;75.11
23176;BME280;19910;42.652;23.332;2022-12-18T12:49:42;95912.75;;;4.78;74.70
23176;BME280;19910;42.652;23.332;2022-12-18T12:52:17;95920.50;;;4.75;75.24
23176;BME280;19910;42.652;23.332;2022-12-18T12:54:45;95927.81;;;4.84;75.20
23176;BME280;19910;42.652;23.332;2022-12-18T12:57:16;95914.34;;;4.79;75.36
23176;BME280;19910;42.652;23.332;2022-12-18T12:59:57;95917.00;;;4.74;75.49
23176;BME280;19910;42.652;23.332;2022-12-18T13:02:31;95921.91;;;4.87;75.91
23176;BME280;19910;42.652;23.332;2022-12-18T13:05:04;95924.56;;;4.82;75.91
23176;BME280;19910;42.652;23.332;2022-12-18T13:07:40;95932.38;;;4.84;75.85
23176;BME280;19910;42.652;23.332;2022-12-18T13:10:20;95936.09;;;4.78;75.59
23176;BME280;19910;42.652;23.332;2022-12-18T13:12:53;95945.38;;;4.65;75.68
23176;BME280;19910;42.652;23.332;2022-12-18T13:15:26;95945.97;;;4.72;75.26
23176;BME280;19910;42.652;23.332;2022-12-18T13:18:18;95945.53;;;4.85;75.55